createdAt,value
2022-12-17T00:02:34.943Z,26.15
2022-12-17T00:08:05.057Z,23.20
2022-12-17T00:10:49.752Z,21.10
2022-12-17T00:13:41.540Z,20.15
2022-12-17T00:16:26.990Z,23.08
2022-12-17T00:19:12.117Z,25.02
2022-12-17T00:24:42.240Z,23.58
2022-12-17T00:27:26.930Z,19.58
2022-12-17T00:30:11.813Z,21.83
2022-12-17T00:32:57.107Z,18.95
2022-12-17T00:35:42.047Z,18.30
2022-12-17T00:38:33.467Z,20.50
2022-12-17T00:41:18.400Z,21.45
2022-12-17T00:44:03.379Z,23.38
2022-12-17T00:46:48.749Z,20.25
2022-12-17T00:49:33.939Z,19.75
2022-12-17T00:52:19.844Z,24.25
2022-12-17T00:55:04.644Z,20.15
2022-12-17T00:57:49.451Z,23.77
2022-12-17T01:00:34.788Z,23.95
2022-12-17T01:03:29.068Z,21.33
2022-12-17T01:06:14.341Z,20.40
2022-12-17T01:08:59.160Z,21.95
2022-12-17T01:11:44.493Z,20.77
2022-12-17T01:14:29.281Z,22.30
2022-12-17T01:17:14.151Z,19.55
2022-12-17T01:19:59.078Z,18.52
2022-12-17T01:22:44.472Z,21.25
2022-12-17T01:25:29.389Z,18.98
2022-12-17T01:28:14.395Z,21.02
2022-12-17T01:30:59.198Z,25.17
2022-12-17T01:33:44.524Z,21.65
2022-12-17T01:36:29.777Z,18.58
2022-12-17T01:39:15.316Z,20.45
2022-12-17T01:42:00.637Z,22.05
2022-12-17T01:44:57.928Z,17.15
2022-12-17T01:47:45.361Z,22.85
2022-12-17T01:50:33.158Z,26.00
2022-12-17T01:53:21.580Z,21.67
2022-12-17T01:56:07.600Z,28.90
2022-12-17T01:58:54.400Z,25.00
2022-12-17T02:01:40.409Z,25.45
2022-12-17T02:04:27.666Z,27.73
2022-12-17T02:07:23.467Z,22.77
2022-12-17T02:10:21.556Z,27.02
2022-12-17T02:13:10.927Z,27.63
2022-12-17T02:16:02.735Z,23.33
2022-12-17T02:19:01.553Z,21.05
2022-12-17T02:21:48.328Z,19.65
2022-12-17T02:24:52.779Z,21.80
2022-12-17T02:27:38.237Z,19.25
2022-12-17T02:30:26.482Z,23.33
2022-12-17T02:33:12.746Z,21.52
2022-12-17T02:36:03.192Z,22.13
2022-12-17T02:38:50.191Z,24.17
2022-12-17T02:41:43.762Z,21.88
2022-12-17T02:44:31.826Z,21.13
2022-12-17T02:47:18.117Z,22.27
2022-12-17T02:50:03.630Z,21.67
2022-12-17T02:52:52.581Z,28.52
2022-12-17T02:55:38.001Z,25.55
2022-12-17T02:58:23.089Z,24.50
2022-12-17T03:03:53.046Z,25.98
2022-12-17T03:06:37.813Z,22.02
2022-12-17T03:09:23.259Z,25.08
2022-12-17T03:12:08.711Z,28.35
2022-12-17T03:14:54.087Z,24.83
2022-12-17T03:17:44.090Z,25.88
2022-12-17T03:20:29.432Z,23.55
2022-12-17T03:23:31.586Z,23.27
2022-12-17T03:26:18.512Z,29.23
2022-12-17T03:29:03.893Z,24.90
2022-12-17T03:31:49.289Z,25.05
2022-12-17T03:34:34.110Z,25.17
2022-12-17T03:37:19.396Z,21.30
2022-12-17T03:40:04.486Z,23.60
2022-12-17T03:45:34.692Z,22.42
2022-12-17T03:48:24.656Z,20.23
2022-12-17T03:51:11.790Z,21.83
2022-12-17T03:53:57.011Z,21.80
2022-12-17T03:56:42.446Z,24.05
2022-12-17T03:59:28.081Z,21.90
2022-12-17T04:02:13.671Z,22.55
2022-12-17T04:04:58.648Z,25.40
2022-12-17T04:07:43.504Z,30.92
2022-12-17T04:10:29.170Z,25.05
2022-12-17T04:13:14.471Z,26.58
2022-12-17T04:15:59.957Z,25.17
2022-12-17T04:18:45.071Z,23.48
2022-12-17T04:24:15.256Z,29.30
2022-12-17T04:27:00.632Z,29.33
2022-12-17T04:29:45.707Z,25.27
2022-12-17T04:35:20.773Z,25.33
2022-12-17T04:38:06.312Z,21.17
2022-12-17T04:40:51.367Z,18.98
2022-12-17T04:46:22.119Z,22.58
2022-12-17T04:51:52.205Z,19.63
2022-12-17T04:54:37.344Z,24.45
2022-12-17T04:57:22.616Z,24.17
2022-12-17T05:00:07.915Z,19.65
2022-12-17T05:02:52.932Z,19.92
2022-12-17T05:05:37.915Z,19.52
2022-12-17T05:08:23.350Z,20.80
2022-12-17T05:11:08.368Z,17.90
2022-12-17T05:16:38.515Z,18.13
2022-12-17T05:19:23.369Z,23.70
2022-12-17T05:22:08.861Z,21.73
2022-12-17T05:24:53.678Z,22.80
2022-12-17T05:27:38.820Z,25.58
2022-12-17T05:30:24.536Z,20.27
2022-12-17T05:33:20.141Z,22.15
2022-12-17T05:36:15.884Z,22.02
2022-12-17T05:39:00.765Z,20.23
2022-12-17T05:41:45.627Z,19.45
2022-12-17T05:44:30.342Z,17.38
2022-12-17T05:47:15.648Z,21.40
2022-12-17T05:50:00.641Z,17.27
2022-12-17T05:52:46.073Z,19.88
2022-12-17T05:55:31.474Z,19.05
2022-12-17T05:58:24.627Z,18.38
2022-12-17T06:01:18.151Z,21.50
2022-12-17T06:04:03.424Z,20.48
2022-12-17T06:06:48.464Z,17.05
2022-12-17T06:09:33.554Z,19.10
2022-12-17T06:12:19.221Z,17.95
2022-12-17T06:15:04.063Z,17.05
2022-12-17T06:17:49.575Z,17.92
2022-12-17T06:20:34.766Z,22.50
2022-12-17T06:23:29.601Z,18.88
2022-12-17T06:26:15.361Z,19.25
2022-12-17T06:29:01.831Z,17.95
2022-12-17T06:31:47.223Z,18.88
2022-12-17T06:34:32.482Z,20.08
2022-12-17T06:37:17.987Z,19.67
2022-12-17T06:40:02.744Z,19.73
2022-12-17T06:42:47.525Z,22.35
2022-12-17T06:45:32.562Z,18.30
2022-12-17T06:51:13.230Z,19.42
2022-12-17T06:53:59.313Z,25.02
2022-12-17T06:56:44.665Z,22.15
2022-12-17T06:59:29.857Z,23.48
2022-12-17T07:02:14.986Z,21.92
2022-12-17T07:04:59.942Z,21.05
2022-12-17T07:07:45.247Z,21.98
2022-12-17T07:10:30.096Z,23.50
2022-12-17T07:13:22.923Z,17.20
2022-12-17T07:16:08.015Z,23.45
2022-12-17T07:21:38.365Z,19.52
2022-12-17T07:24:23.697Z,22.23
2022-12-17T07:27:08.673Z,21.48
2022-12-17T07:29:53.537Z,17.88
2022-12-17T07:32:38.449Z,24.10
2022-12-17T07:35:23.773Z,21.83
2022-12-17T07:38:08.586Z,22.55
2022-12-17T07:40:53.524Z,25.60
2022-12-17T07:43:38.679Z,24.83
2022-12-17T07:46:23.851Z,23.63
2022-12-17T07:51:53.899Z,18.80
2022-12-17T07:54:38.811Z,23.80
2022-12-17T07:57:23.605Z,23.27
2022-12-17T08:00:08.553Z,21.42
2022-12-17T08:05:38.770Z,21.15
2022-12-17T08:11:15.465Z,22.38
2022-12-17T08:14:00.201Z,25.52
2022-12-17T08:16:45.284Z,30.98
2022-12-17T08:22:15.602Z,24.33
2022-12-17T08:25:00.817Z,21.88
2022-12-17T08:27:46.232Z,28.15
2022-12-17T08:30:31.398Z,27.20
2022-12-17T08:33:22.054Z,28.08
2022-12-17T08:36:15.522Z,29.27
2022-12-17T08:39:01.529Z,34.35
2022-12-17T08:41:51.100Z,31.42
2022-12-17T08:44:39.061Z,30.00
2022-12-17T08:47:23.753Z,34.33
2022-12-17T08:50:08.664Z,42.63
2022-12-17T08:52:53.592Z,39.38
2022-12-17T08:55:39.012Z,36.45
2022-12-17T08:58:23.766Z,34.17
2022-12-17T09:01:09.049Z,26.77
2022-12-17T09:03:54.340Z,28.25
2022-12-17T09:06:39.676Z,32.20
2022-12-17T09:09:25.132Z,38.58
2022-12-17T09:12:10.377Z,36.72
2022-12-17T09:14:55.189Z,32.25
2022-12-17T09:17:40.536Z,33.42
2022-12-17T09:20:29.244Z,24.90
2022-12-17T09:23:14.676Z,24.20
2022-12-17T09:28:44.291Z,17.88
2022-12-17T09:31:35.359Z,18.58
2022-12-17T09:34:22.269Z,22.15
2022-12-17T09:39:52.575Z,17.05
2022-12-17T09:42:51.781Z,18.58
2022-12-17T09:46:01.970Z,17.92
2022-12-17T09:49:18.504Z,18.25
2022-12-17T09:52:03.788Z,9.38
2022-12-17T09:55:01.242Z,2.65
2022-12-17T09:57:51.227Z,2.65
2022-12-17T10:00:43.776Z,3.78
2022-12-17T10:03:41.768Z,3.03
2022-12-17T10:06:40.832Z,3.78
2022-12-17T10:09:32.306Z,2.40
2022-12-17T10:12:38.237Z,3.92
2022-12-17T10:15:25.297Z,8.43
2022-12-17T10:18:11.060Z,6.65
2022-12-17T10:21:07.054Z,8.20
2022-12-17T10:23:53.197Z,6.47
2022-12-17T10:26:42.349Z,11.02
2022-12-17T10:29:47.318Z,4.75
2022-12-17T10:32:33.506Z,5.85
2022-12-17T10:35:21.312Z,8.30
2022-12-17T10:38:06.640Z,6.38
2022-12-17T10:40:54.422Z,5.65
2022-12-17T10:43:44.430Z,6.35
2022-12-17T10:46:29.479Z,6.22
2022-12-17T10:52:50.440Z,10.20
2022-12-17T10:55:43.836Z,9.27
2022-12-17T10:58:41.985Z,6.90
2022-12-17T11:01:31.403Z,12.15
2022-12-17T11:04:17.088Z,7.53
2022-12-17T11:07:09.120Z,7.63
2022-12-17T11:09:58.818Z,4.30
2022-12-17T11:12:56.991Z,7.57
2022-12-17T11:15:54.233Z,6.28
2022-12-17T11:18:44.624Z,6.85
2022-12-17T11:21:34.305Z,7.30
2022-12-17T11:24:22.980Z,6.80
2022-12-17T11:27:13.516Z,7.63
2022-12-17T11:29:58.637Z,6.78
2022-12-17T11:33:07.368Z,8.27
2022-12-17T11:36:06.356Z,7.03
2022-12-17T11:38:57.112Z,11.57
2022-12-17T11:41:58.246Z,12.82
2022-12-17T11:44:58.202Z,7.72
2022-12-17T11:48:05.274Z,9.27
2022-12-17T11:51:09.130Z,9.02
2022-12-17T11:54:23.476Z,13.18
2022-12-17T11:57:26.446Z,11.48
2022-12-17T12:00:31.580Z,8.60
2022-12-17T12:03:33.641Z,8.57
2022-12-17T12:06:20.309Z,6.95
2022-12-17T12:09:23.303Z,10.93
2022-12-17T12:12:23.481Z,8.80
2022-12-17T12:15:30.656Z,9.00
2022-12-17T12:18:20.611Z,9.55
2022-12-17T12:21:24.146Z,8.55
2022-12-17T12:24:22.205Z,5.93
2022-12-17T12:27:42.354Z,7.20
2022-12-17T12:30:36.352Z,5.90
2022-12-17T12:33:41.965Z,8.70
2022-12-17T12:36:30.618Z,4.15
2022-12-17T12:39:17.474Z,3.55
2022-12-17T12:42:29.435Z,6.03
2022-12-17T12:45:36.424Z,12.02
2022-12-17T12:48:37.010Z,9.10
2022-12-17T12:51:33.611Z,6.18
2022-12-17T12:54:20.925Z,4.80
2022-12-17T12:57:06.279Z,4.13
2022-12-17T12:59:55.972Z,3.88
2022-12-17T13:02:50.254Z,4.15
2022-12-17T13:05:35.126Z,3.95
2022-12-17T13:08:08.443Z,5.43
2022-12-17T13:10:37.165Z,6.13
2022-12-17T13:13:12.289Z,2.65
2022-12-17T13:15:45.940Z,5.82
2022-12-17T13:18:18.183Z,2.90
2022-12-17T13:20:55.946Z,5.43
2022-12-17T13:23:41.021Z,2.40
2022-12-17T13:28:41.157Z,4.38
2022-12-17T13:31:19.908Z,3.30
2022-12-17T13:34:19.911Z,3.03
2022-12-17T13:36:55.555Z,4.43
2022-12-17T13:39:32.014Z,3.47
2022-12-17T13:41:58.639Z,2.70
2022-12-17T13:44:29.852Z,3.38
2022-12-17T13:46:56.657Z,6.72
2022-12-17T13:49:24.606Z,12.00
2022-12-17T13:52:11.775Z,5.63
2022-12-17T13:54:38.637Z,12.05
2022-12-17T13:57:10.825Z,20.83
2022-12-17T13:59:38.222Z,16.02
2022-12-17T14:02:04.908Z,18.83
2022-12-17T14:04:31.941Z,4.20
2022-12-17T14:07:03.284Z,3.72
2022-12-17T14:09:39.026Z,2.63
2022-12-17T14:12:22.205Z,5.68
2022-12-17T14:14:55.865Z,4.70
2022-12-17T14:17:25.140Z,2.83
2022-12-17T14:20:14.687Z,3.30
2022-12-17T14:22:51.104Z,4.05
2022-12-17T14:25:21.856Z,6.60
2022-12-17T14:27:54.492Z,3.20
2022-12-17T14:31:02.481Z,6.25
2022-12-17T14:33:34.469Z,4.10
2022-12-17T14:36:06.349Z,3.60
2022-12-17T14:38:45.060Z,3.88
2022-12-17T14:41:33.694Z,5.43
2022-12-17T14:44:03.421Z,2.92
2022-12-17T14:46:31.991Z,7.07
2022-12-17T14:49:00.657Z,3.35
2022-12-17T14:51:42.178Z,5.72
2022-12-17T14:54:14.870Z,6.40
2022-12-17T14:56:42.230Z,2.97
2022-12-17T14:59:34.170Z,3.20
2022-12-17T15:02:05.633Z,3.75
2022-12-17T15:04:32.699Z,4.80
2022-12-17T15:06:59.673Z,4.00
2022-12-17T15:09:26.302Z,5.90
2022-12-17T15:11:52.869Z,5.57
2022-12-17T15:14:19.395Z,6.22
2022-12-17T15:16:46.438Z,4.68
2022-12-17T15:19:13.073Z,6.05
2022-12-17T15:21:39.902Z,4.43
2022-12-17T15:24:10.765Z,6.22
2022-12-17T15:26:37.233Z,4.75
2022-12-17T15:29:03.763Z,4.25
2022-12-17T15:31:35.211Z,4.80
2022-12-17T15:34:02.230Z,7.60
2022-12-17T15:36:31.814Z,8.85
2022-12-17T15:38:59.108Z,6.25
2022-12-17T15:41:44.097Z,5.18
2022-12-17T15:46:37.716Z,4.88
2022-12-17T15:49:04.366Z,4.10
2022-12-17T15:51:30.927Z,4.53
2022-12-17T15:53:57.518Z,4.32
2022-12-17T15:56:26.169Z,5.45
2022-12-17T15:58:53.059Z,5.30
2022-12-17T16:01:20.160Z,5.38
2022-12-17T16:03:47.118Z,7.25
2022-12-17T16:06:13.768Z,4.88
2022-12-17T16:08:40.877Z,5.60
2022-12-17T16:11:11.928Z,5.82
2022-12-17T16:13:39.213Z,4.78
2022-12-17T16:16:07.466Z,7.63
2022-12-17T16:18:36.620Z,4.55
2022-12-17T16:21:04.769Z,4.57
2022-12-17T16:23:31.511Z,5.85
2022-12-17T16:25:59.991Z,7.50
2022-12-17T16:28:27.590Z,7.68
2022-12-17T16:31:01.564Z,6.22
2022-12-17T16:33:35.520Z,5.95
2022-12-17T16:36:03.603Z,7.93
2022-12-17T16:38:30.268Z,7.43
2022-12-17T16:40:59.117Z,8.32
2022-12-17T16:43:26.951Z,9.48
2022-12-17T16:45:54.323Z,9.02
2022-12-17T16:48:21.950Z,9.98
2022-12-17T16:50:49.456Z,10.20
2022-12-17T16:53:16.297Z,12.70
2022-12-17T16:55:48.379Z,8.70
2022-12-17T16:58:17.088Z,7.53
2022-12-17T17:00:45.655Z,8.20
2022-12-17T17:03:12.557Z,7.53
2022-12-17T17:05:40.654Z,8.27
2022-12-17T17:08:07.443Z,10.75
2022-12-17T17:10:36.860Z,9.88
2022-12-17T17:13:04.066Z,11.25
2022-12-17T17:15:30.928Z,9.60
2022-12-17T17:18:01.500Z,6.50
2022-12-17T17:20:32.286Z,10.73
2022-12-17T17:22:59.672Z,8.80
2022-12-17T17:25:38.804Z,14.40
2022-12-17T17:28:13.093Z,16.85
2022-12-17T17:30:39.593Z,10.95
2022-12-17T17:33:06.372Z,13.93
2022-12-17T17:35:32.849Z,18.42
2022-12-17T17:37:59.518Z,17.05
2022-12-17T17:40:26.021Z,13.98
2022-12-17T17:42:53.281Z,13.52
2022-12-17T17:45:19.998Z,15.18
2022-12-17T17:47:46.553Z,14.05
2022-12-17T17:50:13.151Z,15.57
2022-12-17T17:52:39.619Z,13.10
2022-12-17T17:55:06.743Z,15.68
2022-12-17T17:57:33.297Z,22.85
2022-12-17T17:59:59.859Z,19.85
2022-12-17T18:02:26.558Z,16.00
2022-12-17T18:04:53.260Z,16.15
2022-12-17T18:07:27.953Z,17.50
2022-12-17T18:09:55.356Z,23.88
2022-12-17T18:12:40.956Z,23.50
2022-12-17T18:15:16.829Z,27.75
2022-12-17T18:17:46.892Z,24.48
2022-12-17T18:20:14.336Z,25.02
2022-12-17T18:22:41.029Z,24.48
2022-12-17T18:25:07.835Z,24.85
2022-12-17T18:27:34.372Z,21.55
2022-12-17T18:30:00.848Z,25.40
2022-12-17T18:32:27.641Z,24.20
2022-12-17T18:34:54.306Z,26.17
2022-12-17T18:37:20.847Z,16.45
2022-12-17T18:39:48.813Z,14.57
2022-12-17T18:42:34.200Z,11.45
2022-12-17T18:45:00.713Z,20.92
2022-12-17T18:47:27.952Z,22.73
2022-12-17T18:49:54.445Z,19.05
2022-12-17T18:52:22.696Z,15.60
2022-12-17T18:54:49.422Z,16.30
2022-12-17T18:57:15.971Z,13.57
2022-12-17T18:59:42.487Z,17.50
2022-12-17T19:02:13.214Z,11.18
2022-12-17T19:04:40.876Z,11.23
2022-12-17T19:07:07.512Z,14.05
2022-12-17T19:09:37.077Z,9.82
2022-12-17T19:12:06.425Z,10.13
2022-12-17T19:14:33.499Z,9.32
2022-12-17T19:17:00.026Z,9.50
2022-12-17T19:19:27.009Z,8.70
2022-12-17T19:22:00.097Z,6.03
2022-12-17T19:24:27.034Z,5.82
2022-12-17T19:26:53.581Z,8.07
2022-12-17T19:29:21.030Z,6.90
2022-12-17T19:31:48.052Z,12.77
2022-12-17T19:34:16.957Z,11.43
2022-12-17T19:36:44.324Z,10.32
2022-12-17T19:39:13.315Z,11.85
2022-12-17T19:41:40.168Z,8.43
2022-12-17T19:44:11.127Z,8.07
2022-12-17T19:46:37.816Z,9.65
2022-12-17T19:49:05.129Z,12.82
2022-12-17T19:51:32.430Z,13.13
2022-12-17T19:54:03.425Z,12.93
2022-12-17T19:56:34.594Z,10.98
2022-12-17T19:59:03.872Z,12.18
2022-12-17T20:01:36.731Z,11.25
2022-12-17T20:04:03.918Z,16.42
2022-12-17T20:06:32.377Z,11.07
2022-12-17T20:08:59.789Z,12.30
2022-12-17T20:11:36.148Z,14.88
2022-12-17T20:14:29.271Z,14.07
2022-12-17T20:16:58.175Z,12.55
2022-12-17T20:19:27.580Z,14.95
2022-12-17T20:21:54.983Z,14.30
2022-12-17T20:24:27.210Z,17.40
2022-12-17T20:26:57.445Z,12.93
2022-12-17T20:29:25.350Z,17.02
2022-12-17T20:31:53.192Z,18.08
2022-12-17T20:34:20.434Z,12.73
2022-12-17T20:36:47.059Z,13.35
2022-12-17T20:39:13.751Z,11.63
2022-12-17T20:41:41.113Z,11.35
2022-12-17T20:44:13.784Z,12.95
2022-12-17T20:46:41.241Z,11.15
2022-12-17T20:49:08.134Z,10.93
2022-12-17T20:51:34.915Z,11.88
2022-12-17T20:54:02.727Z,9.30
2022-12-17T20:56:32.197Z,11.43
2022-12-17T20:59:02.483Z,12.60
2022-12-17T21:01:31.778Z,12.32
2022-12-17T21:03:59.565Z,14.02
2022-12-17T21:06:27.876Z,13.52
2022-12-17T21:08:55.703Z,14.35
2022-12-17T21:11:28.330Z,13.40
2022-12-17T21:13:55.546Z,13.50
2022-12-17T21:16:25.707Z,12.00
2022-12-17T21:18:53.041Z,10.32
2022-12-17T21:21:22.892Z,14.63
2022-12-17T21:23:50.396Z,12.75
2022-12-17T21:26:26.391Z,12.90
2022-12-17T21:28:55.053Z,15.40
2022-12-17T21:31:30.704Z,11.68
2022-12-17T21:34:00.652Z,10.32
2022-12-17T21:36:29.450Z,14.68
2022-12-17T21:38:56.462Z,15.18
2022-12-17T21:41:26.575Z,15.27
2022-12-17T21:43:58.685Z,13.05
2022-12-17T21:46:27.330Z,12.88
2022-12-17T21:48:54.640Z,11.77
2022-12-17T21:51:22.546Z,11.57
2022-12-17T21:53:56.600Z,12.05
2022-12-17T21:56:23.878Z,12.00
2022-12-17T21:58:56.575Z,14.07
2022-12-17T22:01:26.134Z,12.07
2022-12-17T22:03:54.617Z,11.25
2022-12-17T22:06:26.037Z,10.60
2022-12-17T22:09:01.839Z,9.80
2022-12-17T22:11:36.581Z,8.95
2022-12-17T22:14:08.483Z,11.85
2022-12-17T22:16:42.491Z,8.70
2022-12-17T22:19:22.134Z,10.05
2022-12-17T22:21:50.892Z,12.38
2022-12-17T22:24:21.145Z,10.43
2022-12-17T22:26:48.433Z,9.02
2022-12-17T22:29:36.032Z,14.38
2022-12-17T22:32:20.742Z,13.27
2022-12-17T22:36:05.537Z,14.82
2022-12-17T22:41:51.381Z,12.50
2022-12-17T22:43:42.648Z,15.40
2022-12-17T22:44:37.200Z,9.32
2022-12-17T22:46:16.695Z,13.30
2022-12-17T22:48:43.305Z,10.65
2022-12-17T22:51:12.748Z,11.93
2022-12-17T22:53:52.488Z,9.73
2022-12-17T22:56:34.079Z,12.95
2022-12-17T22:59:07.304Z,9.13
2022-12-17T23:01:34.113Z,10.18
2022-12-17T23:04:02.544Z,13.82
2022-12-17T23:06:29.253Z,10.88
2022-12-17T23:08:56.724Z,9.60
2022-12-17T23:11:25.530Z,9.73
2022-12-17T23:13:53.239Z,12.98
2022-12-17T23:16:20.239Z,12.35
2022-12-17T23:18:48.719Z,14.73
2022-12-17T23:21:18.229Z,16.17
2022-12-17T23:23:45.168Z,19.85
2022-12-17T23:26:15.347Z,18.02
2022-12-17T23:28:42.702Z,16.45
2022-12-17T23:31:13.575Z,17.95
2022-12-17T23:33:40.812Z,18.08
2022-12-17T23:36:13.350Z,17.45
2022-12-17T23:38:40.453Z,21.30
2022-12-17T23:41:13.227Z,18.42
2022-12-17T23:43:40.640Z,19.27
2022-12-17T23:46:08.691Z,17.52
2022-12-17T23:48:42.051Z,19.60
2022-12-17T23:51:13.342Z,23.55
2022-12-17T23:53:40.428Z,18.25
2022-12-17T23:56:13.892Z,15.73
2022-12-17T23:58:42.536Z,16.30
